Time;durP1;ratioP1;P1;durP2;ratioP2;P2;SDS_P1;SDS_P2;PMS_P1;PMS_P2;Temp;Humidity;BMP_temperature;BMP_pressure;BME280_temperature;BME280_humidity;BME280_pressure;Samples;Min_cycle;Max_cycle;Signal;HPM_P1;HPM_P2
2022/03/18 00:00:24;;;;;;;13.40;7.20;;;;;;;0.89;72.85;103796.63;5112246;27;20101;-66
2022/03/18 00:02:54;;;;;;;14.55;7.30;;;;;;;0.85;72.79;103796.34;5113614;28;20036;-66
2022/03/18 00:05:24;;;;;;;16.33;6.53;;;;;;;0.81;73.04;103795.28;5113433;27;20067;-66
2022/03/18 00:07:53;;;;;;;14.63;6.60;;;;;;;0.75;73.33;103792.34;5110525;28;20501;-66
2022/03/18 00:10:21;;;;;;;16.02;6.78;;;;;;;0.70;73.36;103794.69;5105986;27;20051;-65
2022/03/18 00:12:53;;;;;;;9.48;5.93;;;;;;;0.67;73.63;103802.28;5112897;28;20795;-66
2022/03/18 00:15:23;;;;;;;13.63;6.10;;;;;;;0.65;74.01;103805.59;5113417;27;20037;-67
2022/03/18 00:17:51;;;;;;;11.38;6.38;;;;;;;0.62;74.06;103803.69;5113100;27;20217;-67
2022/03/18 00:20:19;;;;;;;13.75;6.40;;;;;;;0.58;74.12;103802.63;5106707;27;20058;-67
2022/03/18 00:22:49;;;;;;;13.32;6.65;;;;;;;0.55;73.99;103809.34;5112791;27;20097;-67
2022/03/18 00:25:19;;;;;;;12.82;6.18;;;;;;;0.48;74.05;103805.50;5104125;28;20040;-68
2022/03/18 00:27:47;;;;;;;13.93;5.60;;;;;;;0.48;74.32;103815.00;5113016;27;20059;-68
2022/03/18 00:30:17;;;;;;;15.13;6.70;;;;;;;0.53;74.80;103811.88;5112244;28;20040;-68
2022/03/18 00:32:48;;;;;;;14.48;6.68;;;;;;;0.54;74.68;103805.88;5112575;27;20064;-69
2022/03/18 00:35:34;;;;;;;14.23;6.40;;;;;;;0.49;74.29;103811.59;5112747;27;20044;-67
2022/03/18 00:38:03;;;;;;;17.67;6.65;;;;;;;0.46;74.35;103821.00;5113452;27;20056;-69
2022/03/18 00:40:32;;;;;;;11.73;6.25;;;;;;;0.43;74.50;103822.50;5110390;27;20044;-67
2022/03/18 00:43:03;;;;;;;14.02;6.30;;;;;;;0.40;74.95;103820.63;5113119;28;20040;-66
2022/03/18 00:45:32;;;;;;;16.08;7.05;;;;;;;0.38;75.05;103822.25;5107067;28;20135;-67
2022/03/18 00:53:31;;;;;;;12.25;7.15;;;;;;;0.27;75.03;103820.69;5109423;28;20050;-68
2022/03/18 00:55:58;;;;;;;17.25;7.20;;;;;;;0.23;74.83;103822.22;5112622;28;20528;-67
2022/03/18 00:58:25;;;;;;;14.43;7.45;;;;;;;0.21;75.07;103821.22;5111800;28;20123;-68
2022/03/18 01:00:52;;;;;;;16.08;7.40;;;;;;;0.21;75.36;103826.41;5110472;28;20044;-65
2022/03/18 01:03:19;;;;;;;13.68;6.20;;;;;;;0.18;75.21;103823.63;5108390;27;20056;-67
2022/03/18 01:05:47;;;;;;;13.88;7.22;;;;;;;0.13;75.42;103827.66;5108061;28;20051;-67
2022/03/18 01:08:14;;;;;;;16.80;8.30;;;;;;;0.12;75.34;103828.44;5111934;27;20036;-67
2022/03/18 01:10:41;;;;;;;16.00;7.32;;;;;;;0.07;75.16;103829.84;5109816;27;20873;-67
2022/03/18 01:13:08;;;;;;;12.95;6.40;;;;;;;0.04;75.54;103833.16;5112244;27;20078;-66
2022/03/18 01:15:36;;;;;;;12.95;6.47;;;;;;;0.02;75.53;103834.75;5111840;27;20094;-66
2022/03/18 01:18:04;;;;;;;13.00;6.22;;;;;;;-0.01;75.66;103838.06;5112516;27;20044;-68
2022/03/18 01:20:31;;;;;;;13.30;5.50;;;;;;;-0.05;75.62;103842.97;5111828;28;20070;-67
2022/03/18 01:23:00;;;;;;;14.18;6.30;;;;;;;-0.10;75.56;103841.81;5110312;27;20116;-66
2022/03/18 01:25:27;;;;;;;13.43;6.30;;;;;;;-0.18;75.77;103849.09;5111361;28;20032;-65
2022/03/18 01:27:54;;;;;;;17.60;6.07;;;;;;;-0.19;76.03;103848.19;5109905;28;20056;-66
2022/03/18 01:30:21;;;;;;;16.08;6.40;;;;;;;-0.21;75.96;103843.72;5107947;28;20101;-66
2022/03/18 01:32:49;;;;;;;12.68;6.43;;;;;;;-147.05;100.00;58721.66;5112806;27;20040;-67
2022/03/18 01:35:17;;;;;;;13.40;6.28;;;;;;;-147.05;100.00;58721.66;5118658;28;20075;-66
2022/03/18 01:37:44;;;;;;;12.05;6.15;;;;;;;-147.05;100.00;58721.66;5119306;28;20433;-66
2022/03/18 01:40:13;;;;;;;13.15;5.93;;;;;;;-147.05;100.00;58721.66;5119614;28;20036;-67
2022/03/18 01:42:40;;;;;;;11.95;5.53;;;;;;;-147.05;100.00;58721.66;5118107;27;20032;-67
2022/03/18 01:45:08;;;;;;;16.20;6.35;;;;;;;-147.05;100.00;58721.66;5118800;27;20047;-66
2022/03/18 01:47:35;;;;;;;12.60;5.28;;;;;;;-147.05;100.00;58721.66;5119265;28;20060;-67
2022/03/18 01:50:03;;;;;;;10.32;5.38;;;;;;;-147.05;100.00;58721.66;5119399;27;22061;-68
2022/03/18 01:52:36;;;;;;;9.48;5.50;;;;;;;-147.05;100.00;58721.66;5119803;27;20043;-67
2022/03/18 01:55:04;;;;;;;10.50;5.45;;;;;;;-147.05;100.00;58721.66;5119299;28;20040;-67
2022/03/18 01:57:31;;;;;;;12.98;5.80;;;;;;;-147.05;100.00;58721.66;5119246;27;20072;-66
2022/03/18 01:59:59;;;;;;;10.63;4.53;;;;;;;-147.05;100.00;58721.66;5117525;28;20051;-67
2022/03/18 02:02:26;;;;;;;10.82;5.28;;;;;;;-147.05;100.00;58721.66;5117421;28;20051;-67
2022/03/18 02:04:57;;;;;;;14.80;5.10;;;;;;;-147.05;100.00;58721.66;5117502;28;20123;-67
2022/03/18 02:07:25;;;;;;;10.68;5.03;;;;;;;-147.05;100.00;58721.66;5114040;28;20040;-67
2022/03/18 02:09:52;;;;;;;12.35;4.70;;;;;;;-147.05;100.00;58721.66;5118081;27;20033;-68
2022/03/18 02:12:19;;;;;;;12.25;4.93;;;;;;;-147.05;100.00;58721.66;5112288;28;20559;-67
2022/03/18 02:14:48;;;;;;;9.35;4.45;;;;;;;-147.05;100.00;58721.66;5118353;28;20048;-69
2022/03/18 02:17:18;;;;;;;10.27;4.80;;;;;;;-0.37;75.05;103873.88;5118953;27;20036;-67
2022/03/18 02:19:48;;;;;;;8.82;4.30;;;;;;;-147.05;100.00;58721.66;5111886;28;20105;-66
2022/03/18 02:22:23;;;;;;;12.82;5.30;;;;;;;-147.05;100.00;58721.66;5110660;27;20059;-66
2022/03/18 02:24:53;;;;;;;9.90;5.05;;;;;;;-147.05;100.00;58721.66;5108727;28;20035;-65
2022/03/18 02:27:21;;;;;;;11.15;4.53;;;;;;;-147.05;100.00;58721.66;5111467;27;20097;-67
2022/03/18 02:29:48;;;;;;;10.93;4.93;;;;;;;-147.05;100.00;58721.66;5110819;27;20047;-68
2022/03/18 02:32:18;;;;;;;10.13;4.97;;;;;;;-147.05;100.00;58721.66;5111004;27;20822;-67
2022/03/18 02:34:45;;;;;;;9.95;4.78;;;;;;;-147.05;100.00;58721.66;5110022;28;20051;-67
2022/03/18 02:37:13;;;;;;;12.93;4.85;;;;;;;-147.05;100.00;58721.66;5106027;27;20052;-67
2022/03/18 02:39:40;;;;;;;12.90;4.47;;;;;;;-147.05;100.00;58721.66;5110390;27;20044;-66
2022/03/18 02:42:08;;;;;;;12.00;4.97;;;;;;;-147.05;100.00;58721.66;5110778;27;20036;-67
2022/03/18 02:44:35;;;;;;;8.95;4.10;;;;;;;-147.05;100.00;58721.66;5111002;27;20040;-66
2022/03/18 02:47:03;;;;;;;11.40;5.15;;;;;;;-147.05;100.00;58721.66;5110641;28;20040;-67
2022/03/18 02:49:31;;;;;;;12.10;4.50;;;;;;;-147.05;100.00;58721.66;5111699;28;20038;-66
2022/03/18 02:51:59;;;;;;;10.43;4.80;;;;;;;-147.05;100.00;58721.66;5109929;28;20043;-66
2022/03/18 02:54:26;;;;;;;10.93;4.68;;;;;;;-147.05;100.00;58721.66;5110991;27;20044;-66
2022/03/18 02:56:53;;;;;;;8.85;4.78;;;;;;;-147.05;100.00;58721.66;5115006;27;20037;-66
2022/03/18 02:59:20;;;;;;;13.82;4.80;;;;;;;-147.05;100.00;58721.66;5114425;27;20075;-64
2022/03/18 03:01:47;;;;;;;16.80;4.75;;;;;;;-147.05;100.00;58721.66;5111227;27;20082;-66
2022/03/18 03:04:17;;;;;;;10.93;4.35;;;;;;;-147.05;100.00;58721.66;5115030;28;20498;-65
2022/03/18 03:09:30;;;;;;;12.95;4.70;;;;;;;-147.05;100.00;58721.66;5109751;27;20048;-66
2022/03/18 03:11:57;;;;;;;14.15;4.57;;;;;;;-147.05;100.00;58721.66;5112985;27;20115;-66
2022/03/18 03:14:25;;;;;;;12.27;4.82;;;;;;;-147.05;100.00;58721.66;5114727;27;20040;-68
2022/03/18 03:16:52;;;;;;;12.35;4.75;;;;;;;-147.05;100.00;58721.66;5113712;27;20131;-68
2022/03/18 03:19:19;;;;;;;14.27;4.80;;;;;;;-147.05;100.00;58721.66;5114861;28;20036;-69
2022/03/18 03:21:47;;;;;;;11.80;4.75;;;;;;;-147.05;100.00;58721.66;5114297;28;20536;-66
2022/03/18 03:24:14;;;;;;;10.57;4.53;;;;;;;-147.05;100.00;58721.66;5113675;28;20043;-67
2022/03/18 03:26:41;;;;;;;9.45;4.25;;;;;;;-147.05;100.00;58721.66;5112652;27;20048;-67
2022/03/18 03:29:08;;;;;;;7.97;4.03;;;;;;;-147.05;100.00;58721.66;5114315;27;20044;-67
2022/03/18 03:31:35;;;;;;;12.70;5.03;;;;;;;-147.05;100.00;58721.66;5112401;27;20511;-66
2022/03/18 03:34:03;;;;;;;10.48;4.15;;;;;;;-147.05;100.00;58721.66;5103513;28;20201;-67
2022/03/18 03:36:30;;;;;;;17.92;5.20;;;;;;;-147.05;100.00;58721.66;5111873;28;20040;-68
2022/03/18 03:38:57;;;;;;;10.73;4.55;;;;;;;-147.05;100.00;58721.66;5113196;28;20043;-68
2022/03/18 03:41:25;;;;;;;12.02;4.25;;;;;;;-147.05;100.00;58721.66;5114511;28;20033;-67
2022/03/18 03:43:52;;;;;;;13.15;5.18;;;;;;;-147.05;100.00;58721.66;5114169;27;20047;-66
2022/03/18 03:46:19;;;;;;;8.27;4.20;;;;;;;-147.05;100.00;58721.66;5113491;27;20036;-66
2022/03/18 03:48:46;;;;;;;14.98;4.47;;;;;;;-147.05;100.00;58721.66;5113144;27;20489;-67
2022/03/18 03:51:13;;;;;;;9.00;4.75;;;;;;;-147.05;100.00;58721.66;5112467;27;20790;-66
2022/03/18 03:53:40;;;;;;;9.95;4.43;;;;;;;-147.05;100.00;58721.66;5112810;27;20041;-66
2022/03/18 03:56:08;;;;;;;7.93;4.13;;;;;;;-147.05;100.00;58721.66;5114452;28;20048;-66
2022/03/18 03:58:35;;;;;;;13.90;4.57;;;;;;;-147.05;100.00;58721.66;5114143;27;20041;-65
2022/03/18 04:01:03;;;;;;;13.18;4.20;;;;;;;-147.05;100.00;58721.66;5106239;27;20131;-66
2022/03/18 04:03:31;;;;;;;12.05;4.47;;;;;;;-147.05;100.00;58721.66;5111546;28;20040;-67
2022/03/18 04:05:59;;;;;;;17.92;4.55;;;;;;;-147.05;100.00;58721.66;5111696;27;20059;-66
2022/03/18 04:08:26;;;;;;;9.52;4.15;;;;;;;-147.05;100.00;58721.66;5114167;27;20135;-66
2022/03/18 04:10:54;;;;;;;10.10;4.25;;;;;;;-147.05;100.00;58721.66;5111754;28;20048;-67
2022/03/18 04:13:22;;;;;;;14.27;4.32;;;;;;;-147.05;100.00;58721.66;5113501;27;20036;-67
2022/03/18 04:15:49;;;;;;;9.52;4.28;;;;;;;-147.05;100.00;58721.66;5113472;27;20040;-66
2022/03/18 04:18:16;;;;;;;12.60;4.28;;;;;;;-147.05;100.00;58721.66;5114458;27;20147;-67
2022/03/18 04:20:43;;;;;;;13.88;4.47;;;;;;;-147.05;100.00;58721.66;5112247;28;20036;-67
2022/03/18 04:23:12;;;;;;;11.88;5.10;;;;;;;-147.05;100.00;58721.66;5113118;27;20869;-66
2022/03/18 04:25:40;;;;;;;11.10;4.32;;;;;;;-147.05;100.00;58721.66;5110965;28;20529;-66
2022/03/18 04:28:08;;;;;;;12.98;4.57;;;;;;;-147.05;100.00;58721.66;5111356;27;20536;-67
2022/03/18 04:30:35;;;;;;;9.57;4.03;;;;;;;-147.05;100.00;58721.66;5113304;28;20465;-67
2022/03/18 04:33:02;;;;;;;11.52;4.13;;;;;;;-147.05;100.00;58721.66;5113349;28;20489;-68
2022/03/18 04:35:31;;;;;;;7.40;4.00;;;;;;;-147.05;100.00;58721.66;5098934;28;20036;-66
2022/03/18 04:37:59;;;;;;;14.73;4.43;;;;;;;-147.05;100.00;58721.66;5112974;27;20539;-66
2022/03/18 04:40:27;;;;;;;10.45;4.50;;;;;;;-147.05;100.00;58721.66;5111827;28;20082;-67
2022/03/18 04:42:55;;;;;;;12.05;5.43;;;;;;;-147.05;100.00;58721.66;5111840;27;20044;-67
2022/03/18 04:45:22;;;;;;;11.23;4.60;;;;;;;-147.05;100.00;58721.66;5113062;27;20082;-67
2022/03/18 04:47:55;;;;;;;11.05;4.68;;;;;;;-147.05;100.00;58721.66;5112617;27;20036;-69
2022/03/18 04:50:23;;;;;;;13.77;5.00;;;;;;;-147.05;100.00;58721.66;5110734;28;20037;-70
2022/03/18 04:52:50;;;;;;;11.20;4.30;;;;;;;-147.05;100.00;58721.66;5112803;27;20050;-65
2022/03/18 04:55:17;;;;;;;9.75;4.05;;;;;;;-147.05;100.00;58721.66;5109547;28;20071;-69
2022/03/18 04:57:48;;;;;;;8.98;4.25;;;;;;;-147.05;100.00;58721.66;5112272;28;20043;-69
2022/03/18 05:00:15;;;;;;;10.65;4.40;;;;;;;-147.05;100.00;58721.66;5112453;28;20094;-68
2022/03/18 05:02:43;;;;;;;9.15;4.13;;;;;;;-147.05;100.00;58721.66;5113081;27;20480;-69
2022/03/18 05:05:11;;;;;;;12.77;4.50;;;;;;;-147.05;100.00;58721.66;5111880;28;20076;-68
2022/03/18 05:07:39;;;;;;;8.95;4.25;;;;;;;-147.05;100.00;58721.66;5111559;27;20036;-70
2022/03/18 05:10:08;;;;;;;12.23;4.72;;;;;;;-147.05;100.00;58721.66;5109003;27;20099;-68
2022/03/18 05:12:36;;;;;;;14.30;4.50;;;;;;;-147.05;100.00;58721.66;5112755;27;20044;-68
2022/03/18 05:15:04;;;;;;;13.00;4.47;;;;;;;-147.05;100.00;58721.66;5111721;28;20032;-67
2022/03/18 05:17:32;;;;;;;11.00;4.50;;;;;;;-147.05;100.00;58721.66;5109995;27;20044;-68
2022/03/18 05:20:02;;;;;;;9.02;4.30;;;;;;;-147.05;100.00;58721.66;5110959;28;20079;-67
2022/03/18 05:22:30;;;;;;;14.43;4.68;;;;;;;-147.05;100.00;58721.66;5113034;28;20048;-69
2022/03/18 05:24:59;;;;;;;11.27;4.47;;;;;;;-147.05;100.00;58721.66;5110919;27;20147;-68
2022/03/18 05:27:27;;;;;;;12.35;4.53;;;;;;;-147.05;100.00;58721.66;5108633;28;20048;-67
2022/03/18 05:29:55;;;;;;;10.98;4.70;;;;;;;-147.05;100.00;58721.66;5110164;27;20090;-67
2022/03/18 05:32:22;;;;;;;9.80;4.50;;;;;;;-147.05;100.00;58721.66;5105284;28;20044;-67
2022/03/18 05:34:49;;;;;;;13.65;4.80;;;;;;;-147.05;100.00;58721.66;5108960;27;20047;-67
2022/03/18 05:37:17;;;;;;;12.07;5.00;;;;;;;-147.05;100.00;58721.66;5109801;27;20509;-68
2022/03/18 05:39:44;;;;;;;12.25;4.68;;;;;;;-147.05;100.00;58721.66;5108591;28;20541;-68
2022/03/18 05:42:11;;;;;;;18.10;4.78;;;;;;;-147.05;100.00;58721.66;5109320;28;20236;-69
2022/03/18 05:44:39;;;;;;;14.95;4.75;;;;;;;-147.05;100.00;58721.66;5110313;28;20521;-67
2022/03/18 05:47:08;;;;;;;13.10;4.53;;;;;;;-147.05;100.00;58721.66;5109748;28;20521;-67
2022/03/18 05:49:35;;;;;;;12.65;4.78;;;;;;;-147.05;100.00;58721.66;5110963;28;20032;-67
2022/03/18 05:52:08;;;;;;;16.98;4.40;;;;;;;-147.05;100.00;58721.66;5110684;27;20566;-66
2022/03/18 05:54:35;;;;;;;13.02;4.75;;;;;;;-147.05;100.00;58721.66;5111490;27;20071;-65
2022/03/18 05:57:03;;;;;;;11.75;4.28;;;;;;;-147.05;100.00;58721.66;5108797;27;20048;-66
2022/03/18 05:59:33;;;;;;;9.13;4.80;;;;;;;-147.05;100.00;58721.66;5102090;27;20036;-66
2022/03/18 06:02:01;;;;;;;11.65;5.00;;;;;;;-147.05;100.00;58721.66;5104595;28;20055;-66
2022/03/18 06:04:31;;;;;;;11.68;4.65;;;;;;;-147.05;100.00;58721.66;5109412;28;20048;-64
2022/03/18 06:06:59;;;;;;;12.20;5.00;;;;;;;-147.05;100.00;58721.66;5109258;28;20048;-66
2022/03/18 06:12:12;;;;;;;12.07;4.75;;;;;;;-147.05;100.00;58721.66;5107589;28;20493;-67
2022/03/18 06:14:39;;;;;;;11.40;4.60;;;;;;;-147.05;100.00;58721.66;5107812;27;20040;-66
2022/03/18 06:17:06;;;;;;;15.02;4.90;;;;;;;-147.05;100.00;58721.66;5110646;28;20105;-67
2022/03/18 06:19:34;;;;;;;14.65;5.20;;;;;;;-147.05;100.00;58721.66;5126370;27;20048;-65
2022/03/18 06:22:02;;;;;;;11.55;4.70;;;;;;;-147.05;100.00;58721.66;5100479;27;20036;-66
2022/03/18 06:24:30;;;;;;;15.00;5.32;;;;;;;-147.05;100.00;58721.66;5107703;28;20048;-68
2022/03/18 06:26:58;;;;;;;10.45;5.05;;;;;;;-147.05;100.00;58721.66;5067591;27;1209563;-67
2022/03/18 06:29:30;;;;;;;26.05;6.00;;;;;;;-147.05;100.00;58721.66;5111065;28;20056;-67
2022/03/18 06:32:01;;;;;;;13.45;4.93;;;;;;;-147.05;100.00;58721.66;5103252;28;20042;-69
2022/03/18 06:34:29;;;;;;;13.63;4.90;;;;;;;-0.58;78.34;104110.94;5109134;27;20040;-69
2022/03/18 06:36:57;;;;;;;13.07;5.38;;;;;;;-0.47;78.24;104107.38;5104893;28;20048;-69
2022/03/18 06:39:25;;;;;;;13.90;5.05;;;;;;;-0.38;78.07;104113.19;5105486;28;20036;-69
2022/03/18 06:41:54;;;;;;;13.23;4.78;;;;;;;-0.27;77.88;104113.03;5106210;27;20054;-69
2022/03/18 06:44:23;;;;;;;15.02;5.63;;;;;;;-0.17;77.69;104107.66;5106164;28;20528;-69
2022/03/18 06:46:50;;;;;;;13.38;4.90;;;;;;;-0.05;77.75;104110.16;5104906;28;20041;-69
2022/03/18 06:49:17;;;;;;;15.63;5.40;;;;;;;0.07;77.42;104115.25;5109529;27;20036;-69
2022/03/18 06:51:46;;;;;;;11.02;5.18;;;;;;;0.18;77.41;104126.34;5110060;27;20044;-69
2022/03/18 06:54:14;;;;;;;15.45;5.43;;;;;;;0.30;77.21;104124.56;5108031;27;20083;-69
2022/03/18 06:56:41;;;;;;;16.00;5.97;;;;;;;0.42;77.05;104129.63;5110813;27;20045;-69
2022/03/18 06:59:08;;;;;;;16.40;5.70;;;;;;;0.56;77.15;104128.81;5110802;27;20039;-69
2022/03/18 07:01:35;;;;;;;17.25;5.88;;;;;;;0.70;76.91;104124.50;5110972;27;20441;-68
2022/03/18 07:04:03;;;;;;;11.50;4.78;;;;;;;0.85;76.69;104127.19;5108807;27;20662;-70
2022/03/18 07:06:30;;;;;;;18.25;6.10;;;;;;;1.01;76.72;104128.13;5111255;28;20040;-68
2022/03/18 07:08:57;;;;;;;17.00;6.07;;;;;;;1.17;76.81;104127.38;5111495;27;20126;-69
2022/03/18 07:11:24;;;;;;;19.88;5.55;;;;;;;1.37;76.51;104132.09;5111564;27;20036;-69
2022/03/18 07:13:51;;;;;;;23.17;7.80;;;;;;;1.57;76.40;104132.38;5111841;28;20059;-69
2022/03/18 07:19:04;;;;;;;25.17;12.27;;;;;;;2.03;76.09;104129.00;5111523;28;20044;-69
2022/03/18 07:21:33;;;;;;;23.73;11.68;;;;;;;2.23;75.79;104121.44;5111661;27;20044;-69
2022/03/18 07:24:01;;;;;;;12.48;6.97;;;;;;;2.41;75.49;104132.88;5111157;28;20119;-69
2022/03/18 07:26:28;;;;;;;16.60;7.32;;;;;;;2.62;75.52;104134.91;5111188;28;20044;-69
2022/03/18 07:28:56;;;;;;;13.60;6.28;;;;;;;2.83;75.41;104135.22;5111363;28;20059;-69
2022/03/18 07:31:23;;;;;;;19.98;7.32;;;;;;;3.05;75.22;104132.03;5107457;27;20520;-69
2022/03/18 07:33:52;;;;;;;35.45;9.10;;;;;;;3.28;75.08;104141.91;5112020;28;20135;-69
2022/03/18 07:36:19;;;;;;;14.15;6.20;;;;;;;3.50;75.01;104138.72;5110992;27;20048;-68
2022/03/18 07:38:47;;;;;;;15.43;6.40;;;;;;;3.72;74.87;104141.59;5111266;27;20043;-70
2022/03/18 07:41:15;;;;;;;14.35;5.85;;;;;;;3.94;74.50;104145.31;5112097;27;20043;-69
2022/03/18 07:43:43;;;;;;;13.20;6.55;;;;;;;4.13;74.43;104157.59;5115305;28;20052;-68
2022/03/18 07:46:10;;;;;;;15.77;7.10;;;;;;;4.31;73.99;104165.44;5110475;28;20170;-69
2022/03/18 07:48:40;;;;;;;13.85;5.90;;;;;;;4.48;73.42;104175.81;5094799;28;20060;-69
2022/03/18 07:51:07;;;;;;;14.80;5.90;;;;;;;4.62;72.69;104179.09;5094332;28;20040;-69
2022/03/18 07:53:37;;;;;;;12.20;6.25;;;;;;;4.74;72.50;104182.28;5099896;28;20048;-68
2022/03/18 07:56:05;;;;;;;11.30;5.18;;;;;;;4.86;72.15;104192.41;5114333;28;20493;-70
2022/03/18 07:58:32;;;;;;;13.93;5.80;;;;;;;4.98;71.96;104182.53;5115199;27;20040;-69
2022/03/18 08:00:59;;;;;;;12.75;4.85;;;;;;;5.11;71.67;104184.00;5110949;27;20124;-70
2022/03/18 08:03:26;;;;;;;14.05;5.40;;;;;;;5.25;71.45;104183.75;5114770;27;20047;-70
2022/03/18 08:05:54;;;;;;;14.00;4.95;;;;;;;5.40;71.04;104189.66;5115055;27;20043;-70
2022/03/18 08:08:21;;;;;;;13.35;5.22;;;;;;;5.53;70.52;104187.59;5114980;27;20097;-70
2022/03/18 08:10:51;;;;;;;12.60;4.68;;;;;;;5.65;70.06;104188.13;5114878;27;20793;-70
2022/03/18 08:13:18;;;;;;;13.60;5.57;;;;;;;5.80;69.88;104193.16;5114922;27;20032;-70
2022/03/18 08:15:45;;;;;;;12.55;5.35;;;;;;;5.94;69.74;104190.25;5106995;28;20048;-70
2022/03/18 08:18:13;;;;;;;17.25;5.15;;;;;;;6.09;69.73;104193.53;5094419;28;20037;-70
2022/03/18 08:20:40;;;;;;;16.20;4.70;;;;;;;6.25;69.69;104187.22;5094427;28;20040;-71
2022/03/18 08:23:14;;;;;;;10.77;4.22;;;;;;;6.41;68.64;104188.72;5093650;28;20564;-70
2022/03/18 08:25:41;;;;;;;23.85;5.65;;;;;;;6.57;68.57;104191.97;5094211;28;20037;-70
2022/03/18 08:28:09;;;;;;;13.75;4.35;;;;;;;6.74;67.88;104206.66;5093632;28;20058;-69
2022/03/18 08:30:39;;;;;;;12.55;4.32;;;;;;;6.92;67.38;104208.22;5094655;28;20383;-70
2022/03/18 08:33:07;;;;;;;22.67;5.30;;;;;;;7.08;67.07;104204.44;5093497;28;20068;-70
2022/03/18 08:35:38;;;;;;;11.88;4.78;;;;;;;7.22;66.18;104203.25;5093844;28;20094;-70
2022/03/18 08:38:07;;;;;;;14.00;4.45;;;;;;;7.39;66.22;104210.84;5094270;28;20542;-69
2022/03/18 08:40:36;;;;;;;16.08;4.35;;;;;;;7.57;65.97;104213.25;5111510;27;20105;-70
2022/03/18 08:43:11;;;;;;;9.80;3.70;;;;;;;7.72;65.23;104215.53;5108783;27;20051;-70
2022/03/18 08:45:39;;;;;;;15.57;4.03;;;;;;;7.87;64.47;104213.44;5112269;28;20040;-69
2022/03/18 08:48:07;;;;;;;16.67;4.18;;;;;;;8.03;63.29;104225.38;5114263;27;20177;-70
2022/03/18 08:50:35;;;;;;;13.63;3.88;;;;;;;8.14;62.39;104225.72;5113990;27;20112;-70
2022/03/18 08:53:09;;;;;;;8.35;3.50;;;;;;;8.26;61.73;104217.41;5112654;27;20149;-70
2022/03/18 08:55:39;;;;;;;12.23;4.00;;;;;;;8.37;61.19;104231.78;5113759;27;20521;-70
2022/03/18 08:58:08;;;;;;;15.57;3.97;;;;;;;8.49;61.73;104227.81;5110483;27;20050;-69
2022/03/18 09:00:35;;;;;;;11.35;3.92;;;;;;;8.64;61.22;104241.44;5110773;27;20046;-69
2022/03/18 09:03:04;;;;;;;12.45;3.70;;;;;;;8.76;60.89;104235.66;5112853;27;20040;-70
2022/03/18 09:05:31;;;;;;;14.75;4.07;;;;;;;8.89;60.08;104236.06;5112952;28;20119;-69
2022/03/18 09:07:59;;;;;;;5.43;2.90;;;;;;;8.98;58.95;104242.53;5113769;28;20048;-70
2022/03/18 09:10:26;;;;;;;13.63;3.67;;;;;;;9.07;58.71;104247.16;5112960;28;20088;-70
2022/03/18 09:12:55;;;;;;;15.65;4.43;;;;;;;9.18;59.08;104242.22;5113121;27;20047;-69
2022/03/18 09:15:22;;;;;;;11.82;3.85;;;;;;;9.32;58.31;104248.78;5113283;27;20559;-70
2022/03/18 09:17:50;;;;;;;11.43;4.18;;;;;;;9.43;57.96;104256.09;5113484;28;20091;-70
2022/03/18 09:20:17;;;;;;;25.02;5.00;;;;;;;9.54;57.86;104257.31;5111922;27;20038;-70
2022/03/18 09:22:44;;;;;;;12.88;3.83;;;;;;;9.66;57.96;104250.59;5113556;28;20505;-70
2022/03/18 09:25:12;;;;;;;9.85;3.60;;;;;;;9.77;57.24;104249.16;5113042;27;20052;-70
2022/03/18 09:27:39;;;;;;;28.75;4.90;;;;;;;9.91;57.22;104257.44;5112054;28;20063;-69
2022/03/18 09:30:11;;;;;;;14.32;4.03;;;;;;;10.05;57.03;104257.81;5103985;28;20043;-70
2022/03/18 09:32:42;;;;;;;7.68;3.42;;;;;;;10.17;56.61;104260.78;5111901;27;20122;-69
2022/03/18 09:35:14;;;;;;;12.98;3.42;;;;;;;10.31;54.60;104262.88;5112849;27;20123;-70
2022/03/18 09:37:41;;;;;;;8.00;2.53;;;;;;;10.41;54.54;104259.66;5113203;28;20050;-71
2022/03/18 09:40:09;;;;;;;7.38;2.95;;;;;;;10.51;53.93;104260.75;5112907;28;20040;-71
2022/03/18 09:43:03;;;;;;;7.72;2.10;;;;;;;10.66;51.82;104269.06;5092572;28;20496;-68
2022/03/18 09:45:33;;;;;;;6.15;2.05;;;;;;;10.80;51.35;104264.13;5102121;28;20036;-69
2022/03/18 09:48:11;;;;;;;4.63;2.20;;;;;;;10.93;50.60;104264.41;5092911;28;20052;-67
2022/03/18 09:50:42;;;;;;;9.93;2.30;;;;;;;11.03;51.32;104267.28;5101679;28;20501;-68
2022/03/18 09:53:18;;;;;;;5.72;1.38;;;;;;;11.18;47.25;104277.28;5106332;28;20071;-67
2022/03/18 09:55:45;;;;;;;7.25;1.65;;;;;;;11.32;47.07;104272.28;5112539;28;20518;-67
2022/03/18 09:58:13;;;;;;;7.30;2.03;;;;;;;11.46;47.13;104269.06;5112414;28;20071;-67
2022/03/18 10:00:40;;;;;;;6.70;1.80;;;;;;;11.60;47.55;104282.56;5112158;27;20051;-67
2022/03/18 10:03:13;;;;;;;6.10;1.80;;;;;;;11.70;46.38;104284.53;5112385;27;20465;-68
2022/03/18 10:05:59;;;;;;;3.83;1.42;;;;;;;11.79;46.07;104275.91;5111389;27;20040;-68
2022/03/18 10:08:49;;;;;;;9.27;1.80;;;;;;;11.91;44.07;104277.88;5112090;27;20125;-68
2022/03/18 10:11:36;;;;;;;4.93;1.40;;;;;;;12.03;44.94;104277.22;5112482;28;20048;-69
2022/03/18 10:14:24;;;;;;;4.63;1.75;;;;;;;12.17;44.08;104269.53;5102703;27;20052;-68
2022/03/18 10:16:53;;;;;;;6.32;1.50;;;;;;;12.17;43.06;104280.13;5106018;28;20040;-68
2022/03/18 10:19:25;;;;;;;6.03;1.60;;;;;;;12.22;42.44;104275.81;5112577;27;20157;-68
2022/03/18 10:22:01;;;;;;;9.07;1.60;;;;;;;12.24;42.83;104271.44;5112765;28;20417;-67
2022/03/18 10:24:33;;;;;;;4.15;1.50;;;;;;;12.26;42.03;104270.59;5112688;28;20040;-68
2022/03/18 10:27:20;;;;;;;4.28;1.80;;;;;;;12.35;41.94;104276.91;5111957;27;20063;-68
2022/03/18 10:29:53;;;;;;;3.67;1.40;;;;;;;12.34;41.55;104275.13;5109937;27;20036;-67
2022/03/18 10:32:24;;;;;;;4.55;1.58;;;;;;;12.36;42.51;104276.06;5091808;28;20040;-67
2022/03/18 10:37:50;;;;;;;9.75;2.00;;;;;;;12.56;41.77;104273.75;5112567;27;20048;-68
2022/03/18 10:40:32;;;;;;;5.72;1.60;;;;;;;12.65;43.35;104278.28;5111878;27;20036;-67
2022/03/18 10:43:03;;;;;;;6.53;2.17;;;;;;;12.81;41.61;104282.06;5111667;28;20044;-68
2022/03/18 10:45:30;;;;;;;6.05;1.58;;;;;;;12.85;41.17;104284.78;5105801;27;20040;-67
2022/03/18 10:48:15;;;;;;;5.97;1.55;;;;;;;12.88;39.20;104283.91;5111743;28;20463;-68
2022/03/18 10:50:45;;;;;;;4.35;1.40;;;;;;;12.84;39.72;104279.47;5105591;28;20097;-68
2022/03/18 10:53:13;;;;;;;10.57;2.13;;;;;;;12.91;41.48;104288.41;5111108;27;20028;-67
2022/03/18 10:55:43;;;;;;;12.65;1.90;;;;;;;13.01;40.81;104292.97;5112214;27;20168;-69
2022/03/18 10:58:17;;;;;;;5.18;1.52;;;;;;;13.09;40.23;104277.16;5112307;27;20044;-68
2022/03/18 11:00:51;;;;;;;6.60;1.50;;;;;;;13.20;39.59;104286.13;5111502;27;20790;-67
2022/03/18 11:03:22;;;;;;;5.45;1.85;;;;;;;13.24;38.95;104284.41;5111502;27;20452;-68
2022/03/18 11:05:53;;;;;;;3.45;1.48;;;;;;;13.13;38.89;104269.28;5112241;27;20067;-67
2022/03/18 11:08:25;;;;;;;3.22;1.35;;;;;;;13.23;39.56;104277.38;5111614;27;20032;-68
2022/03/18 11:11:18;;;;;;;5.70;1.50;;;;;;;13.27;39.71;104272.13;5111851;28;20043;-69
2022/03/18 11:13:48;;;;;;;3.67;1.40;;;;;;;13.35;38.76;104267.81;5111935;27;20040;-67
2022/03/18 11:16:25;;;;;;;6.50;1.45;;;;;;;13.43;39.57;104267.03;5111733;27;20047;-68
2022/03/18 11:18:53;;;;;;;3.60;1.50;;;;;;;13.54;39.21;104269.81;5112904;27;20040;-68
2022/03/18 11:21:21;;;;;;;4.63;2.03;;;;;;;13.61;38.89;104269.91;5101087;28;20046;-68
2022/03/18 11:23:54;;;;;;;5.30;1.73;;;;;;;13.69;38.72;104262.06;5099571;28;20054;-67
2022/03/18 11:26:22;;;;;;;4.03;1.50;;;;;;;13.81;38.91;104263.94;5105740;27;20525;-67
2022/03/18 11:29:13;;;;;;;6.03;1.67;;;;;;;13.82;37.75;104263.97;5115091;28;20074;-68
2022/03/18 11:32:10;;;;;;;;;;;;;;;13.81;38.62;104256.88;5115921;27;20083;-67
2022/03/18 11:34:57;;;;;;;4.22;1.60;;;;;;;13.97;39.29;104259.69;5113731;27;19924;-68
2022/03/18 11:37:29;;;;;;;4.32;1.77;;;;;;;14.08;39.02;104254.50;5094356;28;20094;-68
2022/03/18 11:40:27;;;;;;;8.82;2.28;;;;;;;14.24;39.25;104266.13;5095283;28;20048;-68